createdAt,value
2018-11-05T00:00:54.785Z,15.27
2018-11-05T00:03:22.153Z,15.77
2018-11-05T00:05:49.595Z,16.17
2018-11-05T00:08:16.964Z,17.40
2018-11-05T00:10:44.331Z,15.10
2018-11-05T00:13:11.677Z,15.03
2018-11-05T00:15:39.017Z,14.67
2018-11-05T00:18:06.390Z,16.83
2018-11-05T00:20:33.735Z,14.73
2018-11-05T00:23:01.118Z,15.53
2018-11-05T00:25:28.481Z,16.40
2018-11-05T00:27:55.830Z,15.90
2018-11-05T00:30:23.154Z,16.03
2018-11-05T00:32:50.527Z,15.17
2018-11-05T00:35:17.873Z,14.10
2018-11-05T00:37:45.222Z,14.97
2018-11-05T00:40:12.573Z,14.53
2018-11-05T00:42:39.910Z,15.77
2018-11-05T00:45:07.441Z,16.07
2018-11-05T00:47:34.782Z,14.03
2018-11-05T00:50:02.145Z,15.27
2018-11-05T00:52:29.576Z,15.50
2018-11-05T00:54:56.929Z,15.27
2018-11-05T00:57:24.283Z,15.57
2018-11-05T00:59:51.639Z,14.90
2018-11-05T01:02:18.981Z,14.73
2018-11-05T01:04:46.312Z,15.80
2018-11-05T01:07:13.652Z,14.07
2018-11-05T01:09:41.038Z,15.07
2018-11-05T01:12:08.374Z,15.07
2018-11-05T01:14:35.746Z,16.10
2018-11-05T01:17:03.152Z,14.73
2018-11-05T01:19:30.501Z,15.50
2018-11-05T01:21:57.841Z,14.30
2018-11-05T01:24:25.182Z,16.30
2018-11-05T01:26:52.525Z,13.97
2018-11-05T01:29:19.895Z,14.33
2018-11-05T01:31:47.285Z,14.23
2018-11-05T01:34:14.665Z,16.10
2018-11-05T01:36:41.966Z,13.83
2018-11-05T01:39:09.294Z,14.23
2018-11-05T01:41:36.694Z,14.87
2018-11-05T01:44:04.046Z,14.90
2018-11-05T01:46:31.416Z,15.53
2018-11-05T01:48:58.792Z,15.20
2018-11-05T01:51:26.146Z,14.90
2018-11-05T01:53:53.483Z,14.30
2018-11-05T01:56:20.829Z,15.13
2018-11-05T01:58:48.165Z,15.23
2018-11-05T02:03:47.593Z,16.30
2018-11-05T02:06:14.933Z,14.63
2018-11-05T02:08:42.341Z,15.40
2018-11-05T02:11:09.677Z,15.40
2018-11-05T02:13:37.050Z,15.73
2018-11-05T02:16:04.582Z,15.63
2018-11-05T02:18:31.756Z,16.97
2018-11-05T02:20:59.107Z,16.97
2018-11-05T02:23:26.492Z,15.70
2018-11-05T02:25:53.857Z,16.20
2018-11-05T02:28:21.204Z,15.30
2018-11-05T02:30:48.546Z,15.43
2018-11-05T02:33:15.900Z,15.97
2018-11-05T02:35:43.246Z,17.43
2018-11-05T02:38:10.608Z,15.40
2018-11-05T02:40:37.972Z,14.87
2018-11-05T02:43:05.326Z,16.10
2018-11-05T02:45:33.392Z,16.30
2018-11-05T02:48:00.765Z,14.40
2018-11-05T02:50:28.097Z,15.87
2018-11-05T02:52:55.438Z,16.40
2018-11-05T02:55:22.805Z,16.70
2018-11-05T02:57:50.197Z,16.97
2018-11-05T03:00:17.653Z,17.50
2018-11-05T03:02:45.195Z,16.87
2018-11-05T03:05:12.631Z,16.10
2018-11-05T03:07:40.092Z,17.37
2018-11-05T03:10:07.901Z,17.93
2018-11-05T03:12:35.322Z,15.53
2018-11-05T03:15:03.166Z,15.63
2018-11-05T03:17:30.564Z,17.00
2018-11-05T03:19:57.985Z,17.27
2018-11-05T03:22:25.441Z,16.93
2018-11-05T03:24:52.874Z,17.73
2018-11-05T03:27:23.605Z,16.87
2018-11-05T03:29:51.092Z,16.57
2018-11-05T03:32:18.546Z,16.50
2018-11-05T03:34:46.017Z,17.00
2018-11-05T03:37:13.438Z,17.20
2018-11-05T03:39:40.868Z,19.00
2018-11-05T03:42:08.401Z,17.07
2018-11-05T03:44:35.808Z,17.87
2018-11-05T03:47:03.271Z,16.50
2018-11-05T03:49:30.699Z,17.57
2018-11-05T03:51:58.135Z,17.47
2018-11-05T03:54:25.550Z,16.53
2018-11-05T03:56:52.983Z,16.97
2018-11-05T03:59:20.420Z,15.70
2018-11-05T04:01:47.894Z,18.23
2018-11-05T04:04:15.299Z,16.93
2018-11-05T04:06:42.803Z,16.23
2018-11-05T04:09:10.267Z,16.50
2018-11-05T04:11:37.703Z,16.20
2018-11-05T04:14:05.161Z,18.27
2018-11-05T04:16:32.643Z,17.93
2018-11-05T04:19:00.058Z,17.27
2018-11-05T04:21:27.505Z,16.63
2018-11-05T04:23:54.907Z,18.47
2018-11-05T04:26:22.378Z,15.63
2018-11-05T04:28:49.791Z,16.67
2018-11-05T04:31:17.246Z,19.03
2018-11-05T04:33:44.680Z,16.70
2018-11-05T04:36:12.143Z,20.80
2018-11-05T04:38:39.567Z,19.17
2018-11-05T04:41:07.667Z,18.53
2018-11-05T04:43:35.091Z,19.07
2018-11-05T04:46:02.521Z,16.80
2018-11-05T04:48:29.984Z,18.33
2018-11-05T04:50:57.415Z,19.03
2018-11-05T04:53:24.847Z,18.00
2018-11-05T04:55:52.270Z,21.47
2018-11-05T04:58:19.714Z,17.90
2018-11-05T05:00:47.754Z,17.30
2018-11-05T05:03:15.302Z,17.70
2018-11-05T05:05:42.670Z,17.10
2018-11-05T05:08:10.090Z,18.87
2018-11-05T05:10:37.571Z,19.30
2018-11-05T05:13:05.099Z,18.20
2018-11-05T05:15:32.528Z,19.00
2018-11-05T05:17:59.972Z,16.53
2018-11-05T05:20:27.423Z,18.50
2018-11-05T05:22:55.015Z,17.83
2018-11-05T05:25:22.304Z,16.97
2018-11-05T05:27:49.707Z,17.33
2018-11-05T05:30:17.173Z,16.70
2018-11-05T05:32:44.627Z,17.80
2018-11-05T05:35:12.100Z,17.53
2018-11-05T05:37:39.545Z,17.80
2018-11-05T05:40:07.123Z,18.20
2018-11-05T05:42:34.544Z,17.47
2018-11-05T05:45:02.000Z,19.13
2018-11-05T05:47:29.467Z,18.73
2018-11-05T05:49:56.961Z,16.63
2018-11-05T05:52:24.343Z,18.53
2018-11-05T05:54:51.752Z,17.27
2018-11-05T05:57:19.323Z,17.57
2018-11-05T05:59:46.785Z,18.53
2018-11-05T06:02:14.167Z,18.83
2018-11-05T06:04:41.700Z,18.27
2018-11-05T06:07:09.174Z,18.43
2018-11-05T06:09:36.659Z,18.20
2018-11-05T06:12:04.378Z,18.67
2018-11-05T06:14:31.824Z,18.57
2018-11-05T06:16:59.282Z,17.60
2018-11-05T06:19:26.832Z,16.80
2018-11-05T06:21:54.420Z,18.77
2018-11-05T06:24:22.712Z,18.80
2018-11-05T06:26:50.163Z,18.73
2018-11-05T06:29:17.611Z,19.87
2018-11-05T06:31:45.051Z,18.77
2018-11-05T06:34:12.491Z,18.43
2018-11-05T06:36:39.940Z,19.20
2018-11-05T06:39:08.837Z,38.23
2018-11-05T06:41:36.438Z,19.17
2018-11-05T06:44:03.972Z,17.97
2018-11-05T06:46:31.399Z,19.00
2018-11-05T06:48:58.897Z,18.43
2018-11-05T06:51:26.311Z,18.97
2018-11-05T06:53:53.739Z,19.10
2018-11-05T06:56:21.200Z,22.93
2018-11-05T06:58:48.621Z,19.80
2018-11-05T07:01:16.354Z,18.70
2018-11-05T07:03:43.811Z,17.20
2018-11-05T07:06:11.310Z,20.03
2018-11-05T07:08:38.764Z,19.80
2018-11-05T07:11:06.327Z,20.13
2018-11-05T07:13:33.761Z,19.10
2018-11-05T07:16:01.299Z,19.43
2018-11-05T07:18:28.791Z,18.17
2018-11-05T07:20:56.206Z,18.73
2018-11-05T07:23:23.672Z,19.03
2018-11-05T07:25:51.112Z,19.93
2018-11-05T07:28:19.218Z,18.80
2018-11-05T07:30:46.652Z,20.07
2018-11-05T07:33:14.193Z,19.93
2018-11-05T07:35:41.563Z,18.57
2018-11-05T07:38:09.036Z,20.07
2018-11-05T07:40:36.447Z,19.83
2018-11-05T07:43:04.288Z,21.07
2018-11-05T07:45:31.727Z,18.80
2018-11-05T07:47:59.163Z,19.97
2018-11-05T07:50:26.782Z,20.17
2018-11-05T07:52:54.061Z,19.13
2018-11-05T07:55:21.510Z,19.77
2018-11-05T07:57:48.945Z,20.33
2018-11-05T08:00:16.383Z,20.30
2018-11-05T08:02:43.873Z,20.27
2018-11-05T08:05:11.312Z,18.60
2018-11-05T08:07:38.764Z,18.23
2018-11-05T08:10:07.129Z,17.83
2018-11-05T08:12:34.623Z,20.33
2018-11-05T08:15:02.117Z,19.57
2018-11-05T08:17:29.588Z,20.80
2018-11-05T08:19:57.036Z,19.07
2018-11-05T08:22:24.973Z,19.93
2018-11-05T08:24:52.405Z,19.93
2018-11-05T08:27:19.906Z,20.03
2018-11-05T08:29:47.358Z,19.60
2018-11-05T08:32:14.831Z,19.73
2018-11-05T08:34:42.375Z,19.47
2018-11-05T08:37:09.827Z,20.50
2018-11-05T08:39:37.285Z,19.43
2018-11-05T08:42:05.131Z,21.63
2018-11-05T08:44:32.587Z,19.00
2018-11-05T08:47:00.104Z,21.20
2018-11-05T08:49:27.557Z,20.40
2018-11-05T08:51:55.070Z,19.67
2018-11-05T08:54:22.697Z,22.17
2018-11-05T08:56:50.279Z,19.73
2018-11-05T08:59:17.735Z,19.10
2018-11-05T09:01:45.171Z,20.03
2018-11-05T09:04:12.628Z,20.23
2018-11-05T09:06:40.087Z,20.33
2018-11-05T09:09:07.750Z,19.23
2018-11-05T09:11:35.622Z,18.03
2018-11-05T09:14:02.939Z,17.90
2018-11-05T09:16:30.409Z,21.50
2018-11-05T09:18:57.848Z,20.63
2018-11-05T09:21:25.309Z,19.00
2018-11-05T09:23:52.786Z,20.63
2018-11-05T09:26:20.223Z,18.37
2018-11-05T09:28:47.679Z,20.50
2018-11-05T09:31:15.211Z,19.67
2018-11-05T09:33:42.661Z,19.33
2018-11-05T09:36:10.102Z,19.50
2018-11-05T09:38:37.596Z,19.77
2018-11-05T09:41:06.035Z,20.70
2018-11-05T09:43:33.483Z,19.30
2018-11-05T09:46:00.946Z,19.37
2018-11-05T09:48:28.481Z,19.43
2018-11-05T09:50:55.927Z,18.20
2018-11-05T09:53:23.374Z,19.23
2018-11-05T09:55:50.908Z,19.67
2018-11-05T09:58:18.331Z,21.17
2018-11-05T10:00:45.804Z,19.23
2018-11-05T10:03:13.413Z,19.50
2018-11-05T10:05:40.828Z,18.70
2018-11-05T10:08:08.267Z,20.93
2018-11-05T10:10:35.753Z,21.63
2018-11-05T10:13:03.293Z,19.83
2018-11-05T10:15:31.732Z,20.40
2018-11-05T10:17:59.180Z,20.00
2018-11-05T10:20:26.633Z,18.53
2018-11-05T10:22:54.116Z,18.93
2018-11-05T10:25:21.571Z,19.20
2018-11-05T10:27:49.077Z,21.20
2018-11-05T10:30:16.760Z,19.43
2018-11-05T10:32:44.317Z,21.10
2018-11-05T10:35:11.845Z,22.93
2018-11-05T10:37:39.371Z,19.93
2018-11-05T10:40:09.708Z,20.50
2018-11-05T10:42:37.176Z,24.73
2018-11-05T10:45:05.860Z,21.53
2018-11-05T10:47:33.320Z,22.77
2018-11-05T10:50:00.822Z,20.33
2018-11-05T10:52:28.372Z,20.47
2018-11-05T10:54:55.712Z,21.33
2018-11-05T10:57:23.203Z,19.60
2018-11-05T10:59:50.663Z,19.80
2018-11-05T11:02:18.116Z,18.70
2018-11-05T11:04:45.551Z,23.70
2018-11-05T11:07:13.572Z,22.10
2018-11-05T11:09:41.088Z,20.70
2018-11-05T11:12:08.453Z,23.37
2018-11-05T11:14:35.879Z,19.20
2018-11-05T11:17:03.341Z,19.50
2018-11-05T11:19:30.801Z,20.63
2018-11-05T11:21:58.497Z,22.53
2018-11-05T11:24:26.196Z,22.00
2018-11-05T11:26:53.640Z,20.17
2018-11-05T11:29:21.347Z,21.40
2018-11-05T11:31:48.575Z,20.70
2018-11-05T11:34:16.059Z,18.93
2018-11-05T11:36:43.735Z,20.70
2018-11-05T11:39:11.007Z,22.37
2018-11-05T11:41:38.591Z,22.70
2018-11-05T11:44:06.048Z,19.23
2018-11-05T11:46:33.540Z,18.40
2018-11-05T11:49:00.988Z,19.87
2018-11-05T11:51:28.465Z,21.60
2018-11-05T11:53:55.948Z,20.20
2018-11-05T11:56:24.015Z,20.40
2018-11-05T11:58:51.466Z,20.93
2018-11-05T12:01:19.015Z,20.47
2018-11-05T12:03:46.465Z,19.67
2018-11-05T12:06:13.973Z,20.53
2018-11-05T12:08:41.504Z,20.77
2018-11-05T12:11:08.980Z,19.17
2018-11-05T12:13:36.428Z,19.10
2018-11-05T12:16:04.284Z,19.57
2018-11-05T12:18:31.884Z,18.77
2018-11-05T12:20:59.232Z,20.00
2018-11-05T12:23:26.701Z,20.80
2018-11-05T12:25:54.384Z,19.60
2018-11-05T12:28:21.860Z,19.47
2018-11-05T12:30:49.384Z,20.57
2018-11-05T12:33:16.860Z,22.30
2018-11-05T12:35:44.308Z,20.40
2018-11-05T12:38:11.817Z,20.67
2018-11-05T12:40:39.332Z,19.63
2018-11-05T12:43:06.796Z,19.47
2018-11-05T12:45:34.248Z,19.37
2018-11-05T12:48:01.691Z,21.10
2018-11-05T12:50:29.149Z,19.70
2018-11-05T12:52:56.590Z,20.90
2018-11-05T12:55:24.027Z,18.63
2018-11-05T12:57:51.507Z,22.57
2018-11-05T13:00:19.412Z,18.20
2018-11-05T13:02:46.897Z,17.27
2018-11-05T13:05:14.347Z,19.73
2018-11-05T13:07:41.842Z,20.20
2018-11-05T13:10:11.119Z,18.90
2018-11-05T13:12:38.574Z,19.33
2018-11-05T13:15:06.411Z,19.77
2018-11-05T13:17:33.815Z,25.00
2018-11-05T13:20:01.293Z,20.70
2018-11-05T13:22:29.029Z,22.03
2018-11-05T13:24:56.298Z,20.17
2018-11-05T13:27:23.735Z,17.20
2018-11-05T13:29:51.183Z,18.80
2018-11-05T13:32:18.620Z,19.60
2018-11-05T13:34:46.015Z,19.83
2018-11-05T13:37:13.706Z,18.87
2018-11-05T13:39:40.927Z,21.27
2018-11-05T13:42:08.480Z,20.67
2018-11-05T13:44:36.026Z,19.50
2018-11-05T13:47:04.100Z,23.67
2018-11-05T13:49:31.323Z,20.90
2018-11-05T13:51:58.637Z,19.03
2018-11-05T13:54:26.116Z,19.13
2018-11-05T13:56:53.439Z,17.80
2018-11-05T13:59:20.875Z,19.20
2018-11-05T14:01:48.295Z,18.90
2018-11-05T14:04:15.784Z,20.60
2018-11-05T14:06:43.226Z,21.00
2018-11-05T14:09:10.720Z,22.70
2018-11-05T14:11:38.204Z,19.97
2018-11-05T14:14:05.679Z,20.33
2018-11-05T14:16:33.136Z,20.50
2018-11-05T14:19:00.611Z,21.93
2018-11-05T14:21:28.124Z,22.07
2018-11-05T14:23:55.556Z,21.90
2018-11-05T14:26:22.975Z,23.07
2018-11-05T14:28:50.975Z,22.03
2018-11-05T14:31:17.841Z,23.13
2018-11-05T14:33:45.297Z,24.23
2018-11-05T14:36:12.720Z,24.40
2018-11-05T14:38:40.293Z,22.07
2018-11-05T14:41:07.630Z,22.20
2018-11-05T14:43:35.210Z,24.10
2018-11-05T14:46:02.535Z,22.23
2018-11-05T14:48:30.007Z,22.30
2018-11-05T14:50:57.448Z,21.57
2018-11-05T14:53:24.900Z,24.93
2018-11-05T14:55:52.347Z,22.37
2018-11-05T14:58:19.788Z,21.03
2018-11-05T15:00:47.236Z,26.63
2018-11-05T15:03:14.689Z,21.90
2018-11-05T15:05:42.124Z,20.50
2018-11-05T15:08:09.579Z,22.07
2018-11-05T15:10:37.004Z,21.60
2018-11-05T15:13:04.767Z,22.20
2018-11-05T15:15:32.171Z,22.60
2018-11-05T15:17:59.600Z,23.30
2018-11-05T15:20:27.072Z,22.50
2018-11-05T15:22:54.467Z,21.20
2018-11-05T15:25:21.908Z,26.33
2018-11-05T15:27:49.339Z,22.37
2018-11-05T15:30:16.819Z,20.70
2018-11-05T15:32:44.322Z,23.60
2018-11-05T15:35:11.759Z,21.77
2018-11-05T15:37:39.182Z,21.27
2018-11-05T15:40:07.416Z,21.07
2018-11-05T15:42:34.859Z,23.03
2018-11-05T15:45:02.316Z,20.10
2018-11-05T15:47:29.759Z,22.27
2018-11-05T15:49:57.255Z,19.87
2018-11-05T15:52:24.726Z,22.00
2018-11-05T15:54:52.111Z,20.20
2018-11-05T15:57:19.543Z,20.83
2018-11-05T15:59:47.023Z,20.97
2018-11-05T16:02:14.512Z,21.47
2018-11-05T16:04:41.937Z,21.83
2018-11-05T16:07:09.400Z,21.83
2018-11-05T16:09:36.926Z,20.70
2018-11-05T16:12:04.514Z,21.47
2018-11-05T16:14:31.949Z,20.07
2018-11-05T16:16:59.383Z,18.50
2018-11-05T16:19:26.823Z,20.53
2018-11-05T16:21:54.252Z,21.77
2018-11-05T16:24:21.711Z,22.50
2018-11-05T16:26:50.297Z,20.30
2018-11-05T16:29:17.756Z,22.03
2018-11-05T16:31:45.191Z,20.57
2018-11-05T16:34:12.659Z,21.10
2018-11-05T16:36:40.146Z,20.50
2018-11-05T16:39:08.388Z,20.90
2018-11-05T16:41:35.847Z,22.33
2018-11-05T16:44:03.291Z,21.67
2018-11-05T16:46:30.737Z,21.47
2018-11-05T16:48:58.294Z,22.97
2018-11-05T16:51:25.752Z,22.40
2018-11-05T16:53:53.407Z,22.80
2018-11-05T16:56:20.676Z,22.33
2018-11-05T16:58:48.216Z,21.23
2018-11-05T17:01:15.943Z,22.70
2018-11-05T17:03:43.215Z,21.83
2018-11-05T17:06:10.623Z,21.43
2018-11-05T17:08:38.095Z,22.47
2018-11-05T17:11:05.836Z,23.30
2018-11-05T17:13:34.299Z,23.17
2018-11-05T17:16:01.541Z,23.83
2018-11-05T17:18:29.046Z,24.43
2018-11-05T17:20:56.475Z,23.00
2018-11-05T17:23:23.930Z,23.77
2018-11-05T17:25:51.379Z,24.57
2018-11-05T17:28:18.815Z,23.10
2018-11-05T17:30:46.275Z,22.60
2018-11-05T17:33:13.724Z,22.97
2018-11-05T17:35:41.184Z,25.90
2018-11-05T17:38:08.617Z,22.23
2018-11-05T17:40:36.050Z,22.37
2018-11-05T17:43:03.836Z,26.10
2018-11-05T17:45:31.265Z,23.20
2018-11-05T17:47:58.723Z,28.17
2018-11-05T17:50:26.138Z,26.57
2018-11-05T17:52:53.604Z,23.77
2018-11-05T17:55:21.099Z,25.93
2018-11-05T17:57:48.524Z,25.33
2018-11-05T18:00:15.991Z,25.00
2018-11-05T18:02:44.047Z,28.60
2018-11-05T18:05:11.904Z,26.90
2018-11-05T18:07:39.412Z,26.90
2018-11-05T18:10:06.989Z,21.97
2018-11-05T18:12:34.520Z,24.30
2018-11-05T18:15:02.008Z,22.97
2018-11-05T18:17:29.463Z,24.77
2018-11-05T18:19:56.918Z,28.10
2018-11-05T18:22:24.343Z,23.67
2018-11-05T18:24:51.911Z,24.00
2018-11-05T18:27:19.378Z,23.23
2018-11-05T18:29:46.815Z,23.47
2018-11-05T18:32:14.232Z,24.40
2018-11-05T18:34:41.789Z,25.03
2018-11-05T18:37:09.247Z,25.27
2018-11-05T18:39:36.673Z,23.73
2018-11-05T18:42:04.312Z,24.67
2018-11-05T18:44:31.761Z,27.67
2018-11-05T18:46:59.233Z,24.67
2018-11-05T18:49:26.679Z,23.07
2018-11-05T18:51:54.138Z,24.07
2018-11-05T18:54:21.542Z,21.77
2018-11-05T18:56:49.008Z,30.00
2018-11-05T18:59:16.485Z,24.13
2018-11-05T19:01:43.943Z,24.57
2018-11-05T19:04:11.368Z,23.00
2018-11-05T19:06:38.817Z,24.37
2018-11-05T19:09:06.463Z,28.70
2018-11-05T19:11:33.908Z,23.90
2018-11-05T19:14:01.363Z,27.10
2018-11-05T19:16:28.803Z,23.97
2018-11-05T19:18:56.355Z,24.83
2018-11-05T19:21:23.787Z,22.73
2018-11-05T19:23:51.446Z,23.63
2018-11-05T19:26:18.691Z,22.63
2018-11-05T19:28:46.121Z,26.00
2018-11-05T19:31:13.557Z,23.13
2018-11-05T19:33:41.085Z,27.13
2018-11-05T19:36:08.496Z,24.73
2018-11-05T19:38:35.940Z,33.23
2018-11-05T19:41:03.395Z,25.10
2018-11-05T19:43:30.833Z,24.97
2018-11-05T19:45:58.292Z,25.23
2018-11-05T19:48:25.720Z,24.40
2018-11-05T19:50:53.175Z,27.57
2018-11-05T19:53:20.649Z,24.40
2018-11-05T19:55:48.133Z,28.43
2018-11-05T19:58:15.553Z,25.50
2018-11-05T20:00:43.076Z,25.70
2018-11-05T20:03:10.542Z,29.77
2018-11-05T20:05:37.983Z,26.63
2018-11-05T20:08:05.425Z,28.40
2018-11-05T20:10:32.899Z,23.67
2018-11-05T20:13:00.272Z,24.93
2018-11-05T20:15:27.735Z,23.30
2018-11-05T20:17:55.211Z,24.10
2018-11-05T20:20:22.628Z,23.63
2018-11-05T20:22:50.074Z,23.60
2018-11-05T20:25:17.555Z,24.20
2018-11-05T20:27:45.020Z,25.97
2018-11-05T20:30:14.459Z,24.77
2018-11-05T20:32:42.101Z,26.50
2018-11-05T20:35:09.395Z,25.80
2018-11-05T20:37:36.853Z,24.57
2018-11-05T20:40:05.461Z,27.90
2018-11-05T20:42:32.763Z,25.37
2018-11-05T20:45:00.207Z,23.97
2018-11-05T20:47:27.644Z,24.87
2018-11-05T20:49:55.124Z,26.13
2018-11-05T20:52:23.407Z,23.23
2018-11-05T20:54:50.895Z,24.43
2018-11-05T20:57:18.323Z,23.17
2018-11-05T20:59:45.760Z,28.40
2018-11-05T21:02:13.219Z,25.73
2018-11-05T21:04:40.676Z,23.27
2018-11-05T21:07:08.131Z,26.00
2018-11-05T21:09:35.557Z,26.13
2018-11-05T21:12:03.004Z,22.60
2018-11-05T21:14:30.475Z,23.47
2018-11-05T21:16:57.919Z,26.50
2018-11-05T21:19:25.345Z,24.83
2018-11-05T21:21:54.428Z,22.63
2018-11-05T21:24:21.703Z,25.00
2018-11-05T21:26:49.193Z,27.23
2018-11-05T21:29:16.596Z,22.50
2018-11-05T21:31:44.016Z,22.80
2018-11-05T21:34:11.478Z,23.60
2018-11-05T21:36:38.883Z,24.93
2018-11-05T21:39:07.781Z,23.13
2018-11-05T21:41:35.215Z,22.30
2018-11-05T21:44:02.668Z,21.87
2018-11-05T21:46:30.112Z,26.90
2018-11-05T21:48:57.539Z,22.40
2018-11-05T21:51:24.969Z,24.53
2018-11-05T21:53:52.459Z,21.37
2018-11-05T21:56:19.807Z,24.50
2018-11-05T21:58:47.296Z,25.97
2018-11-05T22:01:14.774Z,24.83
2018-11-05T22:03:42.676Z,25.30
2018-11-05T22:06:10.115Z,23.27
2018-11-05T22:08:37.564Z,22.30
2018-11-05T22:11:05.523Z,25.90
2018-11-05T22:13:32.987Z,22.93
2018-11-05T22:16:00.390Z,23.77
2018-11-05T22:18:27.840Z,22.93
2018-11-05T22:20:55.262Z,24.73
2018-11-05T22:23:22.709Z,21.47
2018-11-05T22:25:50.133Z,22.90
2018-11-05T22:28:17.582Z,23.67
2018-11-05T22:30:45.030Z,26.13
2018-11-05T22:33:12.459Z,25.80
2018-11-05T22:35:39.967Z,26.00
2018-11-05T22:38:07.397Z,23.17
2018-11-05T22:40:34.810Z,23.80
2018-11-05T22:43:02.247Z,23.23
2018-11-05T22:45:29.714Z,26.40
2018-11-05T22:47:57.129Z,24.90
2018-11-05T22:50:24.603Z,21.07
2018-11-05T22:52:51.991Z,27.13
2018-11-05T22:55:19.447Z,24.37
2018-11-05T22:57:46.868Z,25.07
2018-11-05T23:00:15.436Z,22.70
2018-11-05T23:02:42.776Z,22.77
2018-11-05T23:05:10.307Z,23.80
2018-11-05T23:07:37.725Z,22.97
2018-11-05T23:10:05.330Z,28.80
2018-11-05T23:12:32.795Z,25.70
2018-11-05T23:15:00.232Z,27.40
2018-11-05T23:17:27.675Z,26.40
2018-11-05T23:19:55.104Z,25.33
2018-11-05T23:22:22.511Z,26.80
2018-11-05T23:24:50.770Z,27.87
2018-11-05T23:27:18.179Z,24.60
2018-11-05T23:29:45.650Z,26.07
2018-11-05T23:32:13.093Z,29.87
2018-11-05T23:34:40.519Z,25.37
2018-11-05T23:37:07.940Z,25.80
2018-11-05T23:39:35.375Z,24.00
2018-11-05T23:42:02.817Z,30.47
2018-11-05T23:44:30.243Z,25.17
2018-11-05T23:46:57.671Z,24.93
2018-11-05T23:49:25.091Z,26.03
2018-11-05T23:51:52.617Z,24.33
2018-11-05T23:54:19.958Z,25.13
2018-11-05T23:56:47.419Z,23.10
2018-11-05T23:59:14.839Z,25.17
